Time;durP1;ratioP1;P1;durP2;ratioP2;P2;SDS_P1;SDS_P2;PMS_P1;PMS_P2;Temp;Humidity;BMP_temperature;BMP_pressure;BME280_temperature;BME280_humidity;BME280_pressure;Samples;Min_cycle;Max_cycle;Signal;HPM_P1;HPM_P2
2022/09/19 00:00:25;;;;;;;1.92;1.30;;;;;;;10.87;63.06;99345.31;4983808;28;20025;-92
2022/09/19 00:02:50;;;;;;;1.60;1.27;;;;;;;10.92;63.73;99358.81;4984001;28;20397;-92
2022/09/19 00:05:16;;;;;;;2.38;1.58;;;;;;;10.81;65.02;99358.00;4984282;28;20484;-91
2022/09/19 00:07:43;;;;;;;1.77;1.35;;;;;;;10.85;64.34;99348.31;5000742;28;20025;-91
2022/09/19 00:10:09;;;;;;;3.00;1.92;;;;;;;10.88;64.19;99338.88;4983783;28;20501;-92
2022/09/19 00:12:34;;;;;;;3.15;1.65;;;;;;;10.83;64.27;99336.16;4983942;28;20026;-92
2022/09/19 00:15:00;;;;;;;2.83;1.40;;;;;;;10.79;64.69;99335.91;4999824;28;20102;-91
2022/09/19 00:17:25;;;;;;;11.23;1.67;;;;;;;10.77;64.60;99334.56;4983576;28;20102;-91
2022/09/19 00:19:51;;;;;;;2.15;1.42;;;;;;;10.82;64.66;99337.25;4983299;28;20051;-91
2022/09/19 00:22:16;;;;;;;2.17;1.60;;;;;;;10.82;64.85;99334.56;4983621;28;20032;-91
2022/09/19 00:24:45;;;;;;;2.00;1.50;;;;;;;10.54;65.21;99312.47;4999464;28;20029;-91
2022/09/19 00:27:12;;;;;;;2.00;1.40;;;;;;;10.64;65.29;99325.94;5000675;28;20104;-92
2022/09/19 00:29:38;;;;;;;1.90;1.50;;;;;;;10.60;65.58;99335.63;4982974;28;20507;-90
2022/09/19 00:32:11;;;;;;;2.20;1.60;;;;;;;10.38;66.51;99322.44;4982500;28;20029;-92
2022/09/19 00:34:37;;;;;;;2.30;1.58;;;;;;;10.46;65.39;99332.69;4985741;28;20091;-92
2022/09/19 00:37:03;;;;;;;1.70;1.35;;;;;;;10.41;65.37;99342.63;4983510;28;20060;-91
2022/09/19 00:39:29;;;;;;;2.00;1.40;;;;;;;10.55;64.67;99334.84;4999498;28;20056;-91
2022/09/19 00:41:54;;;;;;;1.60;1.23;;;;;;;10.50;63.55;99314.94;4983232;28;20061;-91
2022/09/19 00:44:22;;;;;;;5.63;1.83;;;;;;;10.61;63.23;99336.47;4999560;28;20029;-90
2022/09/19 00:47:10;;;;;;;3.28;1.20;;;;;;;10.48;64.63;99343.19;5015534;28;20029;-91
2022/09/19 00:49:40;;;;;;;1.98;1.30;;;;;;;10.21;65.59;99324.53;4999045;28;20049;-91
2022/09/19 00:52:12;;;;;;;1.73;1.45;;;;;;;10.18;65.72;99323.19;4998097;28;20038;-92
2022/09/19 00:54:40;;;;;;;2.67;1.98;;;;;;;10.37;64.76;99338.88;4982826;28;20033;-91
2022/09/19 00:57:06;;;;;;;3.50;2.25;;;;;;;10.29;64.38;99314.09;4982807;28;20033;-91
2022/09/19 00:59:34;;;;;;;3.10;2.13;;;;;;;10.57;62.68;99330.00;4999353;28;20087;-91
2022/09/19 01:02:02;;;;;;;3.17;1.85;;;;;;;10.69;62.99;99333.22;4983268;28;20037;-91
2022/09/19 01:04:30;;;;;;;3.80;2.85;;;;;;;10.71;61.68;99321.09;4983246;28;20406;-91
2022/09/19 01:07:21;;;;;;;3.90;3.00;;;;;;;10.71;61.60;99320.31;4999979;28;20080;-92
2022/09/19 01:09:58;;;;;;;4.05;3.20;;;;;;;10.89;61.00;99327.00;5001623;28;20030;-91
2022/09/19 01:12:47;;;;;;;6.10;3.50;;;;;;;10.98;61.28;99340.72;5015713;28;20103;-91
2022/09/19 01:15:44;;;;;;;5.70;3.15;;;;;;;10.54;62.56;99317.06;4999847;28;20041;-91
2022/09/19 01:18:10;;;;;;;5.40;3.00;;;;;;;10.60;63.22;99330.25;5017954;28;20087;-91
2022/09/19 01:20:57;;;;;;;6.15;2.88;;;;;;;10.66;62.42;99326.47;4999121;28;20495;-92
2022/09/19 01:23:57;;;;;;;3.03;2.65;;;;;;;10.51;64.83;99326.50;5033020;28;20025;-91
2022/09/19 01:26:58;;;;;;;2.70;2.08;;;;;;;10.26;66.40;99327.25;4998878;28;20029;-91
2022/09/19 01:29:27;;;;;;;3.07;2.03;;;;;;;10.11;67.06;99322.66;5015524;28;20060;-92
2022/09/19 01:31:54;;;;;;;2.30;1.70;;;;;;;9.90;67.29;99303.78;4983681;28;20029;-91
2022/09/19 01:34:40;;;;;;;4.05;1.90;;;;;;;10.14;66.96;99334.75;4989397;28;20089;-90
2022/09/19 01:37:14;;;;;;;2.42;1.40;;;;;;;9.99;67.20;99332.84;4963691;28;20092;-91
2022/09/19 01:39:42;;;;;;;5.07;1.63;;;;;;;10.03;66.55;99315.91;4960451;28;20031;-91
2022/09/19 01:42:11;;;;;;;3.35;1.83;;;;;;;10.19;65.42;99315.94;4944175;28;20092;-92
2022/09/19 01:44:36;;;;;;;3.92;2.08;;;;;;;10.14;65.63;99307.88;4970078;28;20032;-91
2022/09/19 01:47:39;;;;;;;3.13;2.17;;;;;;;10.21;65.27;99336.13;4986479;28;20480;-91
2022/09/19 01:50:26;;;;;;;2.83;2.10;;;;;;;10.21;64.85;99346.91;5020235;28;20026;-91
2022/09/19 01:53:14;;;;;;;3.92;2.20;;;;;;;10.23;64.07;99333.97;4999233;28;20038;-91
2022/09/19 01:56:06;;;;;;;2.85;2.28;;;;;;;10.19;64.26;99313.22;4949153;28;20062;-91
2022/09/19 01:58:54;;;;;;;2.65;1.90;;;;;;;10.17;64.40;99318.91;4954794;28;20022;-92
2022/09/19 02:01:44;;;;;;;3.17;1.90;;;;;;;10.18;66.01;99347.41;5003793;28;20026;-91
2022/09/19 02:04:23;;;;;;;2.40;1.95;;;;;;;10.19;65.71;99330.22;5018439;28;20060;-91
2022/09/19 02:06:51;;;;;;;1.90;1.30;;;;;;;9.94;65.72;99324.75;5004249;28;20468;-92
2022/09/19 02:09:27;;;;;;;1.63;1.05;;;;;;;9.85;66.52;99352.16;5003117;28;20037;-91
2022/09/19 02:11:54;;;;;;;2.28;1.45;;;;;;;9.61;65.34;99335.69;5003246;28;20427;-90
2022/09/19 02:14:21;;;;;;;2.28;1.27;;;;;;;9.83;64.86;99338.19;4986306;28;20049;-91
2022/09/19 02:16:58;;;;;;;5.00;1.83;;;;;;;9.79;64.92;99329.03;4986365;28;20025;-90
2022/09/19 02:19:44;;;;;;;2.85;1.52;;;;;;;9.51;65.85;99332.97;5002387;28;20443;-91
2022/09/19 02:22:16;;;;;;;4.47;1.60;;;;;;;9.44;66.73;99333.22;4985580;28;20033;-91
2022/09/19 02:24:43;;;;;;;2.03;1.23;;;;;;;9.59;66.27;99359.34;4988618;28;20586;-93
2022/09/19 02:27:11;;;;;;;2.38;1.58;;;;;;;9.50;66.26;99353.66;4982489;28;20101;-90
2022/09/19 02:29:40;;;;;;;1.80;1.50;;;;;;;9.36;66.63;99343.63;4982597;28;20034;-91
2022/09/19 02:32:07;;;;;;;2.92;1.60;;;;;;;9.31;67.08;99337.16;4982928;28;20512;-91
2022/09/19 02:34:32;;;;;;;2.28;1.50;;;;;;;9.46;66.14;99349.88;4994003;28;20454;-90
2022/09/19 02:37:04;;;;;;;2.30;1.58;;;;;;;9.61;66.16;99359.88;4985939;28;20116;-91
2022/09/19 02:39:45;;;;;;;3.30;1.73;;;;;;;9.58;65.83;99357.72;4986075;28;20033;-91
2022/09/19 02:42:29;;;;;;;2.65;1.75;;;;;;;9.47;66.96;99348.00;4987366;28;20041;-92
2022/09/19 02:45:04;;;;;;;2.10;1.50;;;;;;;9.68;67.32;99359.63;4973096;28;20080;-91
2022/09/19 02:47:34;;;;;;;2.33;1.70;;;;;;;9.54;67.81;99355.81;4998078;28;20061;-91
2022/09/19 02:50:07;;;;;;;2.30;1.65;;;;;;;9.46;67.43;99343.69;4997284;28;20414;-90
2022/09/19 02:52:33;;;;;;;6.70;1.60;;;;;;;9.35;68.44;99352.78;5002022;28;20080;-90
2022/09/19 02:55:19;;;;;;;5.13;1.85;;;;;;;9.18;68.73;99350.25;5000281;28;20033;-91
2022/09/19 02:57:46;;;;;;;2.90;1.88;;;;;;;9.27;68.57;99360.25;5001660;28;20399;-90
2022/09/19 03:00:13;;;;;;;4.15;1.60;;;;;;;9.36;67.75;99365.13;5001222;28;20487;-91
2022/09/19 03:02:40;;;;;;;3.35;1.70;;;;;;;9.32;67.41;99346.03;4985433;28;20017;-91
2022/09/19 03:05:09;;;;;;;3.13;1.65;;;;;;;9.29;67.59;99352.72;4985150;28;20036;-91
2022/09/19 03:08:04;;;;;;;2.33;1.70;;;;;;;9.24;68.17;99358.09;5001692;28;20469;-91
2022/09/19 03:10:33;;;;;;;4.85;2.00;;;;;;;9.19;67.84;99336.53;5001677;28;20492;-91
2022/09/19 03:13:04;;;;;;;2.83;1.92;;;;;;;9.26;67.65;99365.91;4984836;28;20076;-91
2022/09/19 03:15:38;;;;;;;2.42;1.73;;;;;;;9.27;67.50;99341.44;5001203;28;20518;-91
2022/09/19 03:18:13;;;;;;;2.60;1.88;;;;;;;9.47;66.93;99348.00;4984360;28;20554;-90
2022/09/19 03:20:44;;;;;;;7.43;2.38;;;;;;;9.20;67.35;99340.88;4984828;28;20087;-90
2022/09/19 03:23:09;;;;;;;4.93;2.50;;;;;;;9.11;68.00;99345.13;5001574;28;20022;-91
2022/09/19 03:25:35;;;;;;;5.32;2.22;;;;;;;9.19;67.87;99362.59;4984158;28;20021;-90
2022/09/19 03:28:01;;;;;;;4.13;2.00;;;;;;;8.99;67.94;99353.38;4984797;28;20018;-91
2022/09/19 03:30:26;;;;;;;4.03;2.25;;;;;;;8.81;68.17;99356.44;4972847;28;20017;-90
2022/09/19 03:32:52;;;;;;;3.63;2.33;;;;;;;8.75;67.61;99363.66;4964480;28;20411;-91
2022/09/19 03:35:17;;;;;;;3.95;2.40;;;;;;;8.74;68.20;99363.94;4981410;28;20101;-91
2022/09/19 03:37:43;;;;;;;2.92;1.92;;;;;;;8.70;67.52;99377.03;4963797;28;20053;-90
2022/09/19 03:40:09;;;;;;;2.88;1.92;;;;;;;8.90;66.74;99366.47;4964582;28;20017;-91
2022/09/19 03:42:36;;;;;;;3.83;2.10;;;;;;;9.19;66.72;99366.09;4964461;28;20403;-90
2022/09/19 03:45:02;;;;;;;4.20;2.08;;;;;;;9.27;66.90;99359.44;4964602;28;20057;-91
2022/09/19 03:47:28;;;;;;;4.53;2.08;;;;;;;9.30;66.74;99369.69;4980832;28;20044;-90
2022/09/19 03:49:54;;;;;;;3.88;2.15;;;;;;;8.94;66.95;99339.09;4980080;28;20026;-90
2022/09/19 03:52:19;;;;;;;5.43;2.22;;;;;;;8.97;66.25;99347.44;4963798;28;20037;-90
2022/09/19 03:54:45;;;;;;;3.83;2.03;;;;;;;8.88;66.88;99359.72;4963680;28;20048;-90
2022/09/19 03:57:11;;;;;;;2.70;2.03;;;;;;;8.90;67.29;99376.38;4964181;28;20044;-90
2022/09/19 03:59:40;;;;;;;4.65;2.20;;;;;;;8.87;67.41;99360.78;4980902;28;20403;-89
2022/09/19 04:02:06;;;;;;;3.63;2.30;;;;;;;8.79;67.48;99340.59;4964894;28;20117;-90
2022/09/19 04:04:32;;;;;;;4.28;2.40;;;;;;;8.80;67.90;99371.75;4964062;28;20029;-91
2022/09/19 04:06:58;;;;;;;5.93;2.65;;;;;;;8.86;67.43;99370.72;4979995;28;20025;-89
2022/09/19 04:09:23;;;;;;;9.07;3.08;;;;;;;8.82;67.20;99363.44;4963769;28;20113;-89
2022/09/19 04:11:49;;;;;;;6.90;4.20;;;;;;;8.88;66.67;99352.50;4963443;28;20026;-89
2022/09/19 04:14:15;;;;;;;7.25;3.00;;;;;;;8.73;67.98;99376.53;4980309;28;20054;-90
2022/09/19 04:16:41;;;;;;;4.45;2.88;;;;;;;8.58;68.22;99358.41;4964015;28;20029;-89
2022/09/19 04:19:09;;;;;;;3.20;2.17;;;;;;;8.47;68.05;99359.41;4980180;28;20393;-89
2022/09/19 04:21:35;;;;;;;8.00;4.70;;;;;;;8.60;68.04;99379.63;4964305;28;20022;-89
2022/09/19 04:24:01;;;;;;;7.88;2.40;;;;;;;8.56;68.20;99387.38;4966290;28;20489;-90
2022/09/19 04:26:26;;;;;;;3.30;1.67;;;;;;;8.56;67.94;99373.97;4966218;28;20091;-89
2022/09/19 04:28:53;;;;;;;6.35;2.10;;;;;;;8.53;68.11;99371.81;4965270;28;20053;-89
2022/09/19 04:31:18;;;;;;;3.97;2.38;;;;;;;8.51;68.25;99368.56;4981539;28;20025;-91
2022/09/19 04:33:44;;;;;;;5.35;2.47;;;;;;;8.48;67.69;99364.50;4982216;28;20480;-91
2022/09/19 04:36:10;;;;;;;3.75;2.40;;;;;;;8.64;67.17;99375.38;4965994;28;20030;-89
2022/09/19 04:38:36;;;;;;;3.50;2.65;;;;;;;8.68;66.21;99369.25;4967291;28;20033;-91
2022/09/19 04:41:02;;;;;;;3.28;2.08;;;;;;;8.60;67.07;99366.22;4968338;28;20060;-93
2022/09/19 04:43:30;;;;;;;5.25;2.40;;;;;;;8.68;67.62;99373.81;4968667;28;20030;-92
2022/09/19 04:46:01;;;;;;;9.88;2.60;;;;;;;8.68;67.28;99371.13;4966158;28;20484;-93
2022/09/19 04:48:26;;;;;;;5.07;2.50;;;;;;;8.85;66.63;99395.94;4983167;28;20024;-91
2022/09/19 04:50:53;;;;;;;4.13;2.70;;;;;;;8.68;67.44;99373.81;4966083;28;20101;-91
2022/09/19 04:53:19;;;;;;;6.60;2.00;;;;;;;8.82;66.87;99395.66;4969319;28;20030;-90
2022/09/19 04:55:49;;;;;;;5.15;2.90;;;;;;;8.79;66.86;99377.38;4986708;28;20045;-90
2022/09/19 04:58:18;;;;;;;4.43;1.92;;;;;;;8.97;66.86;99403.84;4970559;28;20492;-91
2022/09/19 05:00:50;;;;;;;5.13;2.70;;;;;;;8.88;67.20;99375.81;4983908;28;20055;-92
2022/09/19 05:03:16;;;;;;;23.65;13.68;;;;;;;8.81;67.37;99365.31;4982123;28;20022;-93
2022/09/19 05:05:44;;;;;;;2.95;1.90;;;;;;;8.80;67.99;99369.06;4964979;28;20034;-91
2022/09/19 05:08:15;;;;;;;7.70;2.35;;;;;;;8.89;67.12;99370.19;4965437;28;20025;-93
2022/09/19 05:10:42;;;;;;;4.50;2.05;;;;;;;9.07;66.33;99387.00;4965597;28;20439;-93
2022/09/19 05:13:08;;;;;;;6.20;2.10;;;;;;;9.18;65.73;99380.63;4962506;28;20135;-85
2022/09/19 05:15:33;;;;;;;3.40;2.08;;;;;;;9.37;64.54;99394.44;4970561;28;20065;-86
2022/09/19 05:17:59;;;;;;;4.78;2.60;;;;;;;9.40;63.70;99382.34;4980819;28;20022;-93
2022/09/19 05:20:26;;;;;;;7.47;3.47;;;;;;;9.48;64.66;99385.38;4970499;28;20068;-91
2022/09/19 05:22:56;;;;;;;3.53;2.40;;;;;;;9.67;62.94;99398.34;4968331;28;20036;-92
2022/09/19 05:25:22;;;;;;;1.98;1.52;;;;;;;9.79;60.88;99392.75;4969001;28;20108;-91
2022/09/19 05:27:47;;;;;;;2.75;1.38;;;;;;;9.76;60.12;99374.47;4983551;28;20024;-92
2022/09/19 05:30:46;;;;;;;1.95;1.02;;;;;;;9.91;59.38;99356.50;4973800;28;20022;-96
2022/09/19 05:33:23;;;;;;;1.85;1.40;;;;;;;10.04;58.90;99382.09;4929050;28;20034;-94
2022/09/19 05:35:50;;;;;;;5.55;2.38;;;;;;;9.96;59.14;99358.41;4956212;28;20062;-89
2022/09/19 05:38:21;;;;;;;3.17;1.75;;;;;;;10.08;57.72;99368.91;4956250;28;20022;-93
2022/09/19 05:40:46;;;;;;;1.92;1.10;;;;;;;10.27;57.55;99348.53;4970099;28;20022;-94
2022/09/19 05:43:12;;;;;;;1.13;0.88;;;;;;;10.51;56.14;99373.06;4963915;28;20074;-94
2022/09/19 05:45:37;;;;;;;1.20;1.02;;;;;;;10.48;56.34;99359.34;4998846;28;20476;-95
2022/09/19 05:48:04;;;;;;;3.33;1.40;;;;;;;10.67;56.31;99379.28;4987118;28;20037;-94
2022/09/19 05:50:30;;;;;;;10.77;1.70;;;;;;;10.79;56.02;99379.00;4968390;28;20511;-93
2022/09/19 05:55:40;;;;;;;2.00;1.20;;;;;;;11.15;54.77;99372.78;4992030;28;20096;-92
2022/09/19 05:58:06;;;;;;;1.92;1.25;;;;;;;11.18;55.46;99380.31;4967619;28;20022;-94
2022/09/19 06:00:32;;;;;;;2.85;1.15;;;;;;;11.22;55.11;99357.13;4983940;28;20048;-93
2022/09/19 06:03:03;;;;;;;2.95;1.35;;;;;;;11.37;54.01;99375.97;4984399;28;20086;-93
2022/09/19 06:05:32;;;;;;;5.07;1.97;;;;;;;11.35;53.33;99355.75;5002292;28;20114;-92
2022/09/19 06:08:03;;;;;;;2.95;1.60;;;;;;;11.58;52.97;99365.94;4983872;28;20269;-92
2022/09/19 06:10:30;;;;;;;3.33;2.00;;;;;;;11.82;53.24;99376.88;4983372;28;20037;-92
2022/09/19 06:12:55;;;;;;;3.20;1.60;;;;;;;11.84;52.73;99371.22;4984087;28;20045;-90
2022/09/19 06:15:21;;;;;;;4.05;1.50;;;;;;;12.08;52.44;99382.22;4983213;28;20018;-92
2022/09/19 06:18:12;;;;;;;;;;;;;;;;;;;;;
2022/09/19 06:20:40;;;;;;;3.08;2.22;;;;;;;12.21;52.69;99384.28;4989058;28;20036;-93
2022/09/19 06:23:35;;;;;;;3.63;1.65;;;;;;;12.30;52.85;99362.91;4968491;28;20026;-95
2022/09/19 06:26:01;;;;;;;4.10;2.47;;;;;;;12.51;52.68;99383.28;4990488;28;20495;-94
2022/09/19 06:28:31;;;;;;;6.57;2.90;;;;;;;12.80;52.25;99392.53;4978096;28;20041;-96
2022/09/19 06:31:04;;;;;;;2.90;1.55;;;;;;;12.86;51.62;99384.09;4994715;28;20093;-94
2022/09/19 06:36:25;;;;;;;3.33;2.00;;;;;;;13.16;51.03;99398.44;5293191;23;20062;-95
2022/09/19 06:38:54;;;;;;;3.20;2.15;;;;;;;13.18;50.41;99380.03;4986511;28;20034;-94
2022/09/19 06:41:24;;;;;;;2.97;1.75;;;;;;;13.38;49.73;99379.03;4987443;28;20026;-96
2022/09/19 06:43:56;;;;;;;3.20;1.80;;;;;;;13.55;48.41;99386.72;4976656;28;20033;-94
2022/09/19 06:46:24;;;;;;;3.42;2.33;;;;;;;13.66;48.88;99385.50;4970108;28;20034;-95
2022/09/19 06:48:58;;;;;;;5.70;1.52;;;;;;;13.61;48.20;99377.44;4970137;28;20026;-95
2022/09/19 06:51:24;;;;;;;4.55;1.65;;;;;;;13.85;47.34;99409.91;4966427;28;20122;-93
2022/09/19 06:53:49;;;;;;;1.48;0.82;;;;;;;13.93;46.83;99401.13;4948396;28;20089;-92
2022/09/19 06:56:15;;;;;;;5.43;1.10;;;;;;;14.01;46.18;99390.75;4965884;28;20144;-93
2022/09/19 06:58:46;;;;;;;3.42;1.00;;;;;;;14.18;45.35;99396.50;4965484;28;20420;-92
2022/09/19 07:01:13;;;;;;;2.60;1.13;;;;;;;14.40;44.84;99390.50;4951581;28;20440;-92
2022/09/19 07:06:59;;;;;;;2.15;1.33;;;;;;;14.22;45.33;99370.44;4996096;28;20518;-95
2022/09/19 07:09:28;;;;;;;1.80;1.42;;;;;;;14.46;44.95;99361.41;4948284;28;20412;-93
2022/09/19 07:12:08;;;;;;;1.95;1.10;;;;;;;14.71;43.48;99362.94;4948281;28;20037;-96
2022/09/19 07:21:21;;;;;;;3.63;2.00;;;;;;;15.21;42.95;99378.63;4961653;28;20049;-93
2022/09/19 07:23:47;;;;;;;3.60;1.27;;;;;;;15.49;41.43;99384.91;4972673;28;20029;-92
2022/09/19 07:26:16;;;;;;;1.67;1.20;;;;;;;15.52;41.63;99374.28;4963859;28;20035;-91
2022/09/19 07:28:45;;;;;;;4.05;1.00;;;;;;;15.41;41.45;99363.91;4948775;28;20027;-95
2022/09/19 07:31:10;;;;;;;4.07;2.40;;;;;;;15.49;41.94;99372.16;4955717;28;20026;-93
2022/09/19 07:33:36;;;;;;;3.20;1.92;;;;;;;15.66;41.74;99368.81;4974130;28;20038;-95
2022/09/19 07:36:07;;;;;;;2.58;1.90;;;;;;;15.73;41.37;99354.91;4943184;28;20069;-92
2022/09/19 07:38:35;;;;;;;8.88;3.85;;;;;;;15.86;41.27;99336.97;4943501;28;20038;-93
2022/09/19 07:41:01;;;;;;;3.08;2.20;;;;;;;16.01;40.47;99343.97;4943630;28;20442;-93
2022/09/19 07:43:27;;;;;;;2.78;1.80;;;;;;;16.15;40.65;99342.03;4942396;28;20026;-93
2022/09/19 07:45:52;;;;;;;5.15;1.73;;;;;;;16.35;39.95;99360.59;4942305;28;20035;-91
2022/09/19 07:48:18;;;;;;;1.98;1.50;;;;;;;16.50;40.17;99343.13;4976702;28;20022;-91
2022/09/19 07:50:47;;;;;;;3.35;1.88;;;;;;;16.81;39.39;99358.72;4994717;28;20033;-92
2022/09/19 07:53:39;;;;;;;2.53;1.70;;;;;;;16.86;37.64;99347.72;4983173;28;20037;-96
2022/09/19 07:56:14;;;;;;;2.47;1.63;;;;;;;16.98;36.28;99365.38;4947591;28;20034;-96
2022/09/19 07:58:49;;;;;;;4.63;1.50;;;;;;;16.94;36.69;99340.72;4943624;28;20093;-96
2022/09/19 08:01:17;;;;;;;3.08;1.30;;;;;;;17.25;36.30;99358.97;4945096;28;20049;-94
2022/09/19 08:03:53;;;;;;;5.15;3.92;;;;;;;17.38;35.81;99347.16;4918080;29;20054;-94
2022/09/19 08:06:20;;;;;;;4.53;2.65;;;;;;;17.39;34.30;99337.91;4920123;29;20061;-92
2022/09/19 08:08:45;;;;;;;1.85;1.30;;;;;;;17.49;34.54;99334.91;4920955;29;20103;-92
2022/09/19 08:11:11;;;;;;;3.30;1.20;;;;;;;17.55;33.99;99333.59;4920883;29;20063;-93
2022/09/19 08:13:36;;;;;;;2.55;1.58;;;;;;;17.48;32.86;99319.66;4932061;28;20030;-92
2022/09/19 08:16:06;;;;;;;1.92;1.20;;;;;;;17.56;31.94;99313.44;4925406;28;20043;-93
2022/09/19 08:18:31;;;;;;;1.98;1.13;;;;;;;17.71;32.15;99322.28;4941918;28;20027;-90
2022/09/19 08:20:57;;;;;;;7.57;4.68;;;;;;;17.88;31.31;99314.16;4994859;28;20086;-91
2022/09/19 08:23:22;;;;;;;9.05;5.00;;;;;;;18.20;31.88;99327.66;4995878;28;20472;-91
2022/09/19 08:25:50;;;;;;;6.20;3.95;;;;;;;18.13;30.37;99309.84;4995857;28;20033;-91
2022/09/19 08:28:25;;;;;;;2.30;1.05;;;;;;;18.08;29.82;99295.63;4980576;28;20040;-91
2022/09/19 08:31:14;;;;;;;2.55;1.25;;;;;;;18.17;31.63;99282.78;4984667;28;20054;-92
2022/09/19 08:41:38;;;;;;;1.40;1.00;;;;;;;18.70;30.51;99300.69;4951311;29;20058;-91
2022/09/19 08:44:40;;;;;;;1.60;0.90;;;;;;;18.76;28.73;99304.84;4924863;29;20028;-92
2022/09/19 08:47:13;;;;;;;0.98;0.80;;;;;;;18.82;28.37;99280.13;4902939;29;20534;-94
2022/09/19 08:50:14;;;;;;;2.35;1.50;;;;;;;18.84;29.35;99269.69;4888219;29;20402;-96
2022/09/19 08:52:47;;;;;;;2.53;1.20;;;;;;;18.95;28.16;99269.03;4956829;28;20035;-94
2022/09/19 08:55:22;;;;;;;1.48;0.80;;;;;;;19.11;26.71;99277.47;5013941;28;20060;-91
2022/09/19 08:57:54;;;;;;;1.20;0.80;;;;;;;18.98;27.55;99256.66;5000511;28;20033;-96
2022/09/19 09:00:23;;;;;;;1.42;0.75;;;;;;;19.13;27.31;99269.75;4982380;28;20046;-92
2022/09/19 09:03:09;;;;;;;0.98;0.75;;;;;;;19.28;26.92;99282.06;4982256;28;20172;-96
2022/09/19 09:06:03;;;;;;;4.03;2.75;;;;;;;19.27;29.31;99271.44;4985240;28;20026;-95
2022/09/19 09:09:02;;;;;;;1.65;0.80;;;;;;;19.25;27.24;99273.72;5014798;28;20091;-93
2022/09/19 09:19:00;;;;;;;2.13;1.17;;;;;;;19.48;26.82;99266.03;4907533;28;20038;-90
2022/09/19 09:22:03;;;;;;;3.40;1.30;;;;;;;19.24;26.42;99255.75;5007068;28;20107;-92
2022/09/19 09:24:37;;;;;;;1.02;0.70;;;;;;;19.22;26.50;99219.78;4995630;28;20101;-92
2022/09/19 09:27:05;;;;;;;1.00;0.80;;;;;;;19.47;26.52;99245.34;4991672;28;20038;-89
2022/09/19 09:29:38;;;;;;;2.63;1.00;;;;;;;19.26;26.37;99221.53;4959536;28;20114;-91
2022/09/19 09:32:19;;;;;;;0.30;0.30;;;;;;;19.28;26.81;99211.06;4961839;28;20023;-90
2022/09/19 09:35:03;;;;;;;1.05;0.50;;;;;;;19.38;26.36;99207.97;4979652;28;20030;-91
2022/09/19 09:37:39;;;;;;;0.82;0.47;;;;;;;19.28;26.83;99186.50;5012106;28;20021;-91
2022/09/19 09:43:07;;;;;;;;;;;;;;;19.48;26.34;99223.13;4971260;28;20093;-94
2022/09/19 09:45:38;;;;;;;1.90;0.65;;;;;;;19.57;26.58;99203.97;4995569;28;19910;-93
2022/09/19 09:48:34;;;;;;;0.77;0.60;;;;;;;19.56;26.48;99218.75;4962831;28;20022;-91
2022/09/19 09:51:00;;;;;;;0.68;0.55;;;;;;;19.69;26.09;99217.69;4979065;28;20038;-91
2022/09/19 09:57:03;;;;;;;0.50;0.40;;;;;;;19.49;25.48;99193.91;4979381;28;20035;-92
2022/09/19 10:06:38;;;;;;;0.40;0.40;;;;;;;19.92;25.65;99196.34;4999800;28;20049;-90
2022/09/19 10:09:16;;;;;;;0.52;0.40;;;;;;;19.96;25.21;99191.78;4985877;28;20057;-94
2022/09/19 10:12:14;;;;;;;0.60;0.40;;;;;;;19.95;24.51;99192.91;4964566;28;20034;-91
2022/09/19 10:14:39;;;;;;;1.00;0.50;;;;;;;19.79;25.04;99172.81;4999644;28;20461;-91
2022/09/19 10:17:05;;;;;;;0.85;0.50;;;;;;;19.79;24.77;99161.88;4980276;28;20054;-92
2022/09/19 10:20:32;;;;;;;;;;;;;;;;;;;;;
2022/09/19 10:23:32;;;;;;;0.90;0.50;;;;;;;20.12;25.78;99186.47;4998296;28;20121;-93
2022/09/19 10:29:00;;;;;;;1.25;0.47;;;;;;;20.04;24.72;99164.69;4987836;28;20039;-89
2022/09/19 10:31:38;;;;;;;0.50;0.43;;;;;;;20.17;24.83;99174.53;4985297;28;20120;-91
2022/09/19 10:34:07;;;;;;;0.88;0.50;;;;;;;20.17;25.36;99167.16;4982713;28;20034;-93
2022/09/19 10:36:34;;;;;;;3.83;2.65;;;;;;;20.33;25.52;99158.28;4998204;28;20030;-91
2022/09/19 10:39:06;;;;;;;4.03;1.52;;;;;;;20.45;25.02;99160.25;4981703;28;20030;-90
2022/09/19 10:41:58;;;;;;;2.38;0.73;;;;;;;20.42;25.99;99144.50;5014637;28;20037;-92
2022/09/19 10:44:33;;;;;;;1.75;1.08;;;;;;;20.61;25.92;99147.53;4994632;28;20046;-94
2022/09/19 10:47:02;;;;;;;0.60;0.40;;;;;;;20.55;25.13;99138.72;4980644;28;20489;-92
2022/09/19 10:49:45;;;;;;;0.60;0.40;;;;;;;20.72;24.51;99145.16;4963059;28;20113;-95
2022/09/19 10:52:30;;;;;;;0.73;0.50;;;;;;;20.82;24.59;99144.69;4943777;28;20421;-92
2022/09/19 10:54:58;;;;;;;2.33;1.00;;;;;;;20.78;24.65;99132.84;4976766;28;20416;-92
2022/09/19 10:57:32;;;;;;;1.95;0.60;;;;;;;20.99;24.28;99138.19;4978141;28;20060;-92
2022/09/19 11:00:02;;;;;;;0.80;0.45;;;;;;;20.95;23.68;99118.09;4993462;28;20034;-90
2022/09/19 11:02:40;;;;;;;0.47;0.38;;;;;;;20.96;22.80;99122.47;4993436;28;20022;-95
2022/09/19 11:05:14;;;;;;;1.42;0.55;;;;;;;20.92;23.24;99116.88;4962910;28;20068;-93
2022/09/19 11:07:54;;;;;;;0.98;0.75;;;;;;;20.80;23.56;99103.19;4947757;28;20097;-91
2022/09/19 11:10:44;;;;;;;3.15;0.88;;;;;;;20.86;23.82;99115.50;4963669;28;20471;-92
2022/09/19 11:13:20;;;;;;;0.70;0.52;;;;;;;20.90;23.73;99104.66;4964706;28;20030;-94
2022/09/19 11:16:08;;;;;;;0.40;0.40;;;;;;;21.01;23.79;99102.25;4962555;28;20030;-93
2022/09/19 11:19:01;;;;;;;2.92;0.60;;;;;;;21.02;23.71;99092.88;4964800;28;20037;-94
2022/09/19 11:25:25;;;;;;;0.80;0.57;;;;;;;21.29;23.31;99094.88;5002867;28;20216;-93
2022/09/19 11:27:55;;;;;;;1.90;1.00;;;;;;;21.18;24.56;99083.59;4999034;28;20022;-92
2022/09/19 11:30:31;;;;;;;0.60;0.60;;;;;;;21.18;23.05;99085.56;4997843;28;20022;-94
2022/09/19 11:33:39;;;;;;;0.25;0.22;;;;;;;21.31;22.88;99098.09;4982134;28;20089;-92
2022/09/19 11:36:07;;;;;;;0.85;0.40;;;;;;;21.31;23.15;99075.34;5014980;28;20080;-94
2022/09/19 11:39:01;;;;;;;3.33;1.55;;;;;;;21.31;23.43;99059.75;5015470;28;20029;-92
2022/09/19 11:45:10;;;;;;;3.78;2.90;;;;;;;21.56;22.15;99079.66;5005220;28;20095;-92
2022/09/19 11:48:16;;;;;;;1.70;1.02;;;;;;;21.57;22.95;99078.47;5005135;28;20042;-91
2022/09/19 11:51:11;;;;;;;;;;;;;;;;;;;;;
2022/09/19 11:54:08;;;;;;;0.73;0.40;;;;;;;21.63;22.28;99065.34;4994106;28;20042;-91
2022/09/19 11:57:12;;;;;;;0.40;0.25;;;;;;;21.51;22.08;99065.38;4982315;28;20030;-92
2022/09/19 11:59:48;;;;;;;1.95;0.60;;;;;;;21.50;22.43;99053.63;4992594;28;20062;-92
2022/09/19 12:02:54;;;;;;;;;;;;;;;;;;;;;
2022/09/19 12:06:05;;;;;;;0.38;0.35;;;;;;;21.46;22.53;99024.53;4920340;29;20130;-95
2022/09/19 12:08:52;;;;;;;0.55;0.40;;;;;;;21.71;22.79;99047.94;4849192;29;20025;-93
2022/09/19 12:11:59;;;;;;;1.05;0.55;;;;;;;21.61;21.83;99032.00;4894741;29;20083;-93
2022/09/19 12:15:00;;;;;;;0.30;0.30;;;;;;;21.54;22.17;99015.38;4896640;29;20360;-92
2022/09/19 12:27:41;;;;;;;0.85;0.57;;;;;;;21.73;22.29;99028.41;4970426;28;20045;-96
2022/09/19 12:40:28;;;;;;;1.00;0.55;;;;;;;21.75;21.55;98993.22;4909191;29;20037;-96
2022/09/19 12:50:41;;;;;;;0.93;0.60;;;;;;;21.77;21.78;98978.03;4848491;29;20068;-95
2022/09/19 12:53:21;;;;;;;0.40;0.30;;;;;;;21.92;21.41;98992.09;4871573;29;20032;-95
2022/09/19 12:56:07;;;;;;;0.30;0.30;;;;;;;21.92;21.18;98994.81;4904093;28;20047;-94
2022/09/19 12:59:36;;;;;;;0.98;0.50;;;;;;;21.98;21.85;99001.63;5012313;28;20026;-95
2022/09/19 13:02:09;;;;;;;0.57;0.38;;;;;;;22.01;22.47;98998.19;5032018;28;20038;-96
2022/09/19 13:05:12;;;;;;;1.25;0.60;;;;;;;21.94;22.25;98974.13;5029412;28;20029;-95
2022/09/19 13:11:59;;;;;;;1.00;0.55;;;;;;;22.07;21.76;98993.22;5040888;28;20036;-96
2022/09/19 13:14:44;;;;;;;2.80;0.45;;;;;;;22.08;21.43;98981.91;4981829;28;20049;-93
2022/09/19 13:25:39;;;;;;;1.17;0.70;;;;;;;22.06;22.14;98950.50;5014929;28;20040;-96
2022/09/19 13:29:02;;;;;;;1.55;0.90;;;;;;;22.28;21.81;98979.25;5008578;28;20093;-96
2022/09/19 13:38:58;;;;;;;1.20;0.63;;;;;;;22.25;21.62;98939.63;4965525;29;20159;-96
2022/09/19 13:41:58;;;;;;;1.30;0.85;;;;;;;22.34;21.44;98939.44;4932940;29;20128;-96
2022/09/19 13:44:28;;;;;;;0.57;0.47;;;;;;;22.48;21.25;98958.16;4952399;29;20099;-96
2022/09/19 13:46:57;;;;;;;3.13;0.93;;;;;;;22.37;20.82;98938.69;4963159;29;20282;-96
2022/09/19 13:49:31;;;;;;;0.68;0.60;;;;;;;22.42;20.83;98957.63;4929920;29;20027;-96
2022/09/19 13:52:04;;;;;;;0.65;0.40;;;;;;;22.54;20.56;98953.97;4965016;28;20034;-94
2022/09/19 13:54:38;;;;;;;2.35;1.30;;;;;;;22.40;20.70;98925.06;4982092;28;20030;-95
2022/09/19 13:57:14;;;;;;;9.45;7.15;;;;;;;22.43;21.27;98944.72;4970394;28;20034;-95